Time;durP1;ratioP1;P1;durP2;ratioP2;P2;SDS_P1;SDS_P2;PMS_P1;PMS_P2;Temp;Humidity;BMP_temperature;BMP_pressure;BME280_temperature;BME280_humidity;BME280_pressure;Samples;Min_cycle;Max_cycle;Signal;HPM_P1;HPM_P2
2023/03/18 00:00:31;;;;;;;16.27;6.55;;;12.20;99.90;;;;;;5055505;28;20036;-84
2023/03/18 00:02:57;;;;;;;13.25;6.68;;;12.30;99.90;;;;;;5019487;28;20116;-84
2023/03/18 00:05:23;;;;;;;13.88;6.43;;;12.30;99.90;;;;;;5035657;28;20148;-85
2023/03/18 00:07:49;;;;;;;13.68;6.50;;;12.30;99.90;;;;;;5050907;28;20044;-86
2023/03/18 00:10:15;;;;;;;11.40;6.47;;;12.30;99.90;;;;;;5039683;28;20036;-85
2023/03/18 00:12:42;;;;;;;11.27;6.57;;;12.30;99.90;;;;;;5056031;28;20066;-85
2023/03/18 00:15:11;;;;;;;10.95;6.18;;;12.30;99.90;;;;;;5055154;28;20044;-85
2023/03/18 00:17:39;;;;;;;10.63;6.50;;;12.30;99.90;;;;;;5055454;28;20044;-84
2023/03/18 00:20:06;;;;;;;13.02;6.32;;;12.30;99.90;;;;;;5039259;28;20067;-84
2023/03/18 00:22:33;;;;;;;10.70;6.38;;;12.30;99.90;;;;;;5038735;28;20039;-84
2023/03/18 00:24:58;;;;;;;11.63;5.90;;;12.20;99.90;;;;;;5039038;28;20051;-84
2023/03/18 00:27:24;;;;;;;13.73;7.00;;;12.20;99.90;;;;;;5038468;28;20036;-84
2023/03/18 00:29:50;;;;;;;12.68;6.55;;;12.20;99.90;;;;;;5022005;28;20044;-84
2023/03/18 00:32:16;;;;;;;10.68;6.28;;;12.10;99.90;;;;;;5038297;28;20055;-85
2023/03/18 00:34:42;;;;;;;11.85;6.32;;;12.10;99.90;;;;;;5071437;28;20041;-84
2023/03/18 00:37:09;;;;;;;10.60;6.18;;;12.10;99.90;;;;;;5038004;28;20036;-85
2023/03/18 00:39:36;;;;;;;11.70;6.03;;;12.10;99.90;;;;;;5055147;28;20454;-84
2023/03/18 00:42:09;;;;;;;11.48;6.00;;;12.00;99.90;;;;;;5038519;28;20040;-84
2023/03/18 00:44:35;;;;;;;14.02;6.63;;;11.90;99.90;;;;;;5039469;28;20048;-85
2023/03/18 00:47:01;;;;;;;12.25;6.38;;;11.90;99.90;;;;;;5054729;28;20036;-85
2023/03/18 00:49:26;;;;;;;12.23;7.05;;;11.90;99.90;;;;;;5038764;28;20037;-85
2023/03/18 00:51:52;;;;;;;13.10;6.97;;;11.90;99.90;;;;;;5038101;28;20055;-85
2023/03/18 00:54:19;;;;;;;12.57;6.90;;;11.80;99.90;;;;;;5054631;28;20512;-84
2023/03/18 00:56:46;;;;;;;12.40;7.28;;;11.70;99.90;;;;;;5038529;28;20400;-84
2023/03/18 00:59:12;;;;;;;13.30;6.95;;;11.60;99.90;;;;;;5039569;28;20125;-84
2023/03/18 01:01:38;;;;;;;12.90;6.93;;;11.50;99.90;;;;;;5041402;28;20044;-84
2023/03/18 01:04:05;;;;;;;12.48;7.18;;;11.50;99.90;;;;;;5075431;28;20049;-84
2023/03/18 01:06:33;;;;;;;12.30;7.18;;;11.40;99.90;;;;;;5059519;28;20423;-84
2023/03/18 01:09:00;;;;;;;11.30;7.40;;;11.40;99.90;;;;;;5058872;28;20131;-85
2023/03/18 01:11:26;;;;;;;12.98;7.57;;;11.40;99.90;;;;;;5060175;28;20037;-84
2023/03/18 01:13:52;;;;;;;12.35;7.43;;;11.40;99.90;;;;;;5039708;28;20041;-85
2023/03/18 01:16:19;;;;;;;15.20;8.23;;;11.30;99.90;;;;;;5053531;28;20047;-84
2023/03/18 01:18:46;;;;;;;14.98;8.40;;;11.30;99.90;;;;;;5043373;28;20063;-84
2023/03/18 01:21:12;;;;;;;14.90;8.48;;;11.20;99.90;;;;;;5060021;28;20043;-85
2023/03/18 01:23:39;;;;;;;14.52;8.73;;;11.20;99.90;;;;;;5043695;28;20093;-84
2023/03/18 01:26:05;;;;;;;16.20;8.75;;;11.10;99.90;;;;;;5059833;28;20055;-85
2023/03/18 01:28:32;;;;;;;18.15;8.15;;;11.00;99.90;;;;;;5060140;28;20496;-85
2023/03/18 01:30:57;;;;;;;16.08;9.13;;;11.00;99.90;;;;;;5042737;28;20028;-85
2023/03/18 01:33:24;;;;;;;16.65;9.02;;;10.90;99.90;;;;;;5026664;28;20067;-85
2023/03/18 01:35:54;;;;;;;19.27;9.95;;;10.90;99.90;;;;;;5060043;28;20041;-84
2023/03/18 01:38:21;;;;;;;19.73;9.95;;;10.80;99.90;;;;;;5060312;28;20484;-84
2023/03/18 01:40:47;;;;;;;;;;;10.80;99.90;;;;;;5059530;28;20085;-82
2023/03/18 01:43:26;;;;;;;16.10;10.38;;;10.80;99.90;;;;;;5059587;28;19970;-84
2023/03/18 01:45:58;;;;;;;16.90;10.73;;;10.70;99.90;;;;;;5055043;28;20115;-84
2023/03/18 01:48:27;;;;;;;21.08;11.05;;;10.70;99.90;;;;;;5058824;28;20435;-84
2023/03/18 01:50:58;;;;;;;18.73;12.02;;;10.70;99.90;;;;;;5059929;28;20423;-85
2023/03/18 01:53:28;;;;;;;20.08;12.10;;;10.60;99.90;;;;;;5060417;28;20499;-84
2023/03/18 01:55:56;;;;;;;20.30;12.32;;;10.60;99.90;;;;;;5060503;28;20041;-83
2023/03/18 01:58:44;;;;;;;20.92;12.73;;;10.60;99.90;;;;;;5059106;28;20028;-83
2023/03/18 02:01:16;;;;;;;;;;;10.60;99.90;;;;;;5059886;28;20048;-84
2023/03/18 02:03:43;;;;;;;24.63;13.38;;;10.60;99.90;;;;;;5058380;28;19916;-84
2023/03/18 02:06:09;;;;;;;;;;;10.60;99.90;;;;;;5059300;28;20209;-84
2023/03/18 02:08:36;;;;;;;26.58;14.15;;;10.50;99.90;;;;;;5042479;28;19920;-84
2023/03/18 02:11:02;;;;;;;28.33;15.02;;;10.50;99.90;;;;;;5058283;28;20075;-84
2023/03/18 02:13:28;;;;;;;28.33;14.73;;;10.50;99.90;;;;;;5041816;28;20032;-84
2023/03/18 02:16:03;;;;;;;23.98;15.05;;;10.50;99.90;;;;;;5038579;28;20036;-84
2023/03/18 02:18:40;;;;;;;26.25;15.32;;;10.50;99.90;;;;;;5067081;28;20036;-84
2023/03/18 02:21:13;;;;;;;;;;;10.50;99.90;;;;;;5057273;28;20028;-84
2023/03/18 02:23:50;;;;;;;27.73;16.23;;;10.50;99.90;;;;;;5073681;28;20387;-84
2023/03/18 02:26:25;;;;;;;26.58;17.13;;;10.50;99.90;;;;;;5073279;28;20041;-84
2023/03/18 02:28:55;;;;;;;30.63;17.33;;;10.50;99.90;;;;;;5056523;28;20044;-84
2023/03/18 02:31:20;;;;;;;27.55;17.25;;;10.50;99.90;;;;;;5073028;28;20039;-84
2023/03/18 02:33:46;;;;;;;29.45;17.92;;;10.50;99.90;;;;;;5039332;28;20045;-84
2023/03/18 02:36:18;;;;;;;27.52;17.30;;;10.50;99.90;;;;;;5023522;28;20051;-84
2023/03/18 02:38:45;;;;;;;30.90;17.45;;;10.40;99.90;;;;;;5056216;28;20043;-84
2023/03/18 02:41:20;;;;;;;26.65;17.63;;;10.40;99.90;;;;;;5056785;28;20040;-84
2023/03/18 02:43:47;;;;;;;28.33;17.75;;;10.40;99.90;;;;;;5056248;28;20037;-84
2023/03/18 02:46:35;;;;;;;26.77;17.20;;;10.40;99.90;;;;;;5055923;28;20051;-84
2023/03/18 02:49:03;;;;;;;28.70;16.80;;;10.40;99.90;;;;;;5056916;28;20041;-85
2023/03/18 02:51:29;;;;;;;30.70;17.75;;;10.40;99.90;;;;;;5040573;28;20040;-84
2023/03/18 02:54:02;;;;;;;31.63;18.65;;;10.40;99.90;;;;;;5073903;28;20505;-84
2023/03/18 02:56:28;;;;;;;39.08;18.90;;;10.40;99.90;;;;;;5056636;28;20366;-84
2023/03/18 02:58:54;;;;;;;34.75;18.98;;;10.40;99.90;;;;;;5023598;28;20039;-84
2023/03/18 03:01:21;;;;;;;30.85;19.05;;;10.40;99.90;;;;;;5056446;28;20074;-84
2023/03/18 03:03:47;;;;;;;31.60;19.17;;;10.30;99.90;;;;;;5055929;28;20105;-84
2023/03/18 03:06:12;;;;;;;32.03;19.10;;;10.20;99.90;;;;;;5039082;28;20143;-84
2023/03/18 03:08:39;;;;;;;34.25;20.13;;;10.20;99.90;;;;;;5020883;28;20115;-84
2023/03/18 03:11:05;;;;;;;35.97;19.20;;;10.10;99.90;;;;;;5055448;28;20028;-84
2023/03/18 03:13:31;;;;;;;33.42;19.40;;;10.10;99.90;;;;;;5072713;28;20117;-85
2023/03/18 03:15:57;;;;;;;28.05;17.02;;;10.00;99.90;;;;;;5039150;28;20048;-84
2023/03/18 03:18:22;;;;;;;30.70;18.35;;;10.00;99.90;;;;;;5038760;28;20044;-84
2023/03/18 03:20:52;;;;;;;28.60;17.73;;;10.00;99.90;;;;;;5019300;28;20091;-84
2023/03/18 03:23:18;;;;;;;30.83;17.58;;;10.00;99.90;;;;;;5049878;28;20064;-84
2023/03/18 03:25:44;;;;;;;33.28;18.13;;;10.00;99.90;;;;;;5038696;28;20143;-84
2023/03/18 03:28:12;;;;;;;36.83;18.52;;;9.90;99.90;;;;;;5039029;28;20037;-84
2023/03/18 03:30:38;;;;;;;35.25;18.42;;;10.00;99.90;;;;;;5055169;28;20041;-84
2023/03/18 03:33:04;;;;;;;;;;;10.00;99.90;;;;;;5055876;28;20131;-84
2023/03/18 03:35:30;;;;;;;30.25;18.77;;;9.90;99.90;;;;;;5055331;28;19979;-84
2023/03/18 03:37:56;;;;;;;35.15;18.75;;;9.90;99.90;;;;;;5038265;28;20041;-84
2023/03/18 03:40:22;;;;;;;31.90;17.90;;;9.90;99.90;;;;;;5038707;28;20041;-84
2023/03/18 03:42:48;;;;;;;27.35;16.98;;;9.90;99.90;;;;;;5055265;28;20043;-84
2023/03/18 03:45:15;;;;;;;32.28;17.70;;;9.90;99.90;;;;;;5055362;28;20166;-84
2023/03/18 03:47:42;;;;;;;32.08;17.90;;;9.90;99.90;;;;;;5072057;28;20480;-84
2023/03/18 03:50:10;;;;;;;30.25;17.30;;;9.80;99.90;;;;;;5038283;28;20047;-84
2023/03/18 03:52:37;;;;;;;34.35;17.73;;;9.80;99.90;;;;;;5055109;28;20048;-84
2023/03/18 03:55:06;;;;;;;31.38;16.98;;;9.80;99.90;;;;;;5054879;28;20029;-84
2023/03/18 03:57:35;;;;;;;29.33;17.70;;;9.80;99.90;;;;;;5055174;28;20043;-84
2023/03/18 04:00:06;;;;;;;32.28;17.65;;;10.20;99.90;;;;;;5071435;28;20082;-84
2023/03/18 04:02:32;;;;;;;33.75;17.73;;;9.80;99.90;;;;;;5038783;28;20484;-84
2023/03/18 04:04:58;;;;;;;35.42;18.40;;;9.80;99.90;;;;;;5054876;28;20044;-84
2023/03/18 04:07:24;;;;;;;;;;;9.80;99.90;;;;;;5071810;28;20044;-84
2023/03/18 04:09:50;;;;;;;29.77;16.83;;;9.80;99.90;;;;;;5054818;28;19928;-84
2023/03/18 04:12:18;;;;;;;32.65;18.00;;;9.80;99.90;;;;;;5038573;28;20034;-84
2023/03/18 04:14:45;;;;;;;29.30;17.75;;;9.80;99.90;;;;;;5055940;28;20056;-84
2023/03/18 04:17:11;;;;;;;35.72;18.63;;;9.80;99.90;;;;;;5022218;28;20453;-84
2023/03/18 04:19:38;;;;;;;32.17;16.73;;;9.80;99.90;;;;;;5054863;28;20121;-84
2023/03/18 04:22:03;;;;;;;;;;;9.80;99.90;;;;;;5039059;28;20441;-85
2023/03/18 04:24:29;;;;;;;34.88;18.15;;;9.70;99.90;;;;;;5054781;28;19946;-84
2023/03/18 04:26:55;;;;;;;36.60;18.23;;;9.70;99.90;;;;;;5021909;28;20468;-84
2023/03/18 04:29:21;;;;;;;32.50;18.42;;;9.70;99.90;;;;;;5037834;28;20480;-85
2023/03/18 04:31:47;;;;;;;32.38;18.00;;;9.60;99.90;;;;;;5022203;28;20451;-84
2023/03/18 04:34:13;;;;;;;34.78;18.10;;;9.60;99.90;;;;;;5056176;28;20485;-84
2023/03/18 04:36:38;;;;;;;33.20;16.98;;;9.60;99.90;;;;;;5025888;28;20044;-84
2023/03/18 04:39:05;;;;;;;32.00;17.60;;;9.60;99.90;;;;;;5025215;28;20032;-84
2023/03/18 04:41:31;;;;;;;31.70;16.95;;;9.60;99.90;;;;;;5041788;28;20032;-84
2023/03/18 04:43:57;;;;;;;29.67;17.05;;;9.60;99.90;;;;;;5058012;28;20036;-84
2023/03/18 04:46:22;;;;;;;33.40;16.23;;;9.60;99.90;;;;;;5041452;28;20040;-84
2023/03/18 04:48:48;;;;;;;32.67;17.95;;;9.60;99.90;;;;;;5041642;28;20400;-84
2023/03/18 04:51:14;;;;;;;31.97;17.50;;;9.60;99.90;;;;;;5058191;28;20091;-84
2023/03/18 04:53:40;;;;;;;29.10;15.48;;;9.60;99.90;;;;;;5042118;28;20634;-84
2023/03/18 04:56:07;;;;;;;;;;;9.60;99.90;;;;;;5042735;28;20115;-84
2023/03/18 04:58:33;;;;;;;30.73;15.43;;;9.60;99.90;;;;;;5042391;28;19916;-84
2023/03/18 05:00:59;;;;;;;30.48;15.98;;;9.60;99.90;;;;;;5042031;28;20779;-84
2023/03/18 05:03:25;;;;;;;29.75;16.20;;;9.60;99.90;;;;;;5058899;28;20044;-84
2023/03/18 05:05:51;;;;;;;28.95;15.63;;;9.60;99.90;;;;;;5024956;28;20385;-85
2023/03/18 05:08:17;;;;;;;29.42;15.63;;;9.50;99.90;;;;;;5024859;28;20032;-85
2023/03/18 05:10:43;;;;;;;30.95;15.43;;;9.50;99.90;;;;;;5042329;28;20132;-84
2023/03/18 05:13:09;;;;;;;29.02;14.88;;;9.60;99.90;;;;;;5059322;28;20072;-83
2023/03/18 05:15:35;;;;;;;26.92;14.77;;;9.60;99.90;;;;;;5026355;28;20032;-83
2023/03/18 05:18:03;;;;;;;25.00;14.20;;;9.70;99.90;;;;;;5041851;28;20438;-84
2023/03/18 05:20:29;;;;;;;24.77;12.52;;;9.70;99.90;;;;;;5042283;28;20039;-84
2023/03/18 05:22:55;;;;;;;26.35;14.57;;;9.80;99.90;;;;;;5058789;28;20048;-84
2023/03/18 05:25:21;;;;;;;30.30;14.77;;;9.80;99.90;;;;;;5058881;28;20041;-84
2023/03/18 05:27:48;;;;;;;29.40;14.63;;;9.80;99.90;;;;;;5025691;28;20389;-84
2023/03/18 05:30:14;;;;;;;30.60;16.08;;;9.80;99.90;;;;;;5058728;28;20046;-84
2023/03/18 05:32:41;;;;;;;;;;;9.80;99.90;;;;;;5059602;28;20036;-84
2023/03/18 05:35:08;;;;;;;31.75;15.50;;;9.90;99.90;;;;;;5058615;28;20015;-83
2023/03/18 05:37:34;;;;;;;27.10;13.00;;;9.80;99.90;;;;;;5024401;28;20040;-84
2023/03/18 05:40:00;;;;;;;33.15;15.65;;;9.80;99.90;;;;;;5057190;28;20044;-84
2023/03/18 05:42:27;;;;;;;29.20;14.85;;;9.80;99.90;;;;;;5040905;28;20492;-84
2023/03/18 05:44:53;;;;;;;31.88;15.35;;;9.80;99.90;;;;;;5056995;28;20493;-84
2023/03/18 05:47:19;;;;;;;32.92;14.25;;;9.80;99.90;;;;;;5057070;28;20123;-84
2023/03/18 05:49:45;;;;;;;38.65;17.73;;;9.80;99.90;;;;;;5057370;28;20070;-84
2023/03/18 05:52:11;;;;;;;37.28;17.88;;;9.70;99.90;;;;;;5040813;28;20032;-85
2023/03/18 05:54:36;;;;;;;32.13;15.20;;;9.60;99.90;;;;;;5041259;28;20369;-84
2023/03/18 05:57:02;;;;;;;35.17;17.10;;;9.60;99.90;;;;;;5021886;28;20041;-84
2023/03/18 05:59:29;;;;;;;39.03;17.83;;;9.60;99.90;;;;;;5040307;28;20412;-84
2023/03/18 06:01:54;;;;;;;38.25;17.55;;;9.60;99.90;;;;;;5057544;28;20052;-84
2023/03/18 06:04:20;;;;;;;37.03;17.67;;;9.50;99.90;;;;;;5040386;28;20223;-84
2023/03/18 06:06:47;;;;;;;39.95;17.17;;;9.50;99.90;;;;;;5074173;28;20078;-84
2023/03/18 06:09:13;;;;;;;;;;;9.50;99.90;;;;;;5057605;28;20032;-85
2023/03/18 06:11:40;;;;;;;35.55;18.55;;;9.50;99.90;;;;;;5056957;28;20029;-84
2023/03/18 06:14:06;;;;;;;35.83;17.52;;;9.50;99.90;;;;;;5056936;28;20043;-84
2023/03/18 06:16:32;;;;;;;36.10;18.42;;;9.50;99.90;;;;;;5040345;28;20148;-84
2023/03/18 06:18:59;;;;;;;39.50;17.98;;;9.50;99.90;;;;;;5040133;28;20131;-84
2023/03/18 06:21:25;;;;;;;37.67;17.83;;;9.50;99.90;;;;;;5056621;28;20040;-84
2023/03/18 06:23:52;;;;;;;41.20;19.48;;;9.50;99.90;;;;;;5040472;28;20040;-84
2023/03/18 06:26:19;;;;;;;41.40;19.15;;;9.50;99.90;;;;;;5040100;28;20375;-84
2023/03/18 06:28:45;;;;;;;39.85;19.20;;;9.60;99.90;;;;;;5056565;28;20081;-84
2023/03/18 06:31:11;;;;;;;35.88;17.67;;;9.60;99.90;;;;;;5056962;28;20116;-83
2023/03/18 06:33:37;;;;;;;37.67;19.08;;;9.60;99.90;;;;;;5073237;28;20103;-84
2023/03/18 06:36:04;;;;;;;38.85;17.73;;;9.60;99.90;;;;;;5073723;28;20044;-85
2023/03/18 06:38:31;;;;;;;42.35;19.58;;;9.70;99.90;;;;;;5056603;28;20062;-84
2023/03/18 06:40:58;;;;;;;35.13;19.23;;;9.70;99.90;;;;;;5055903;28;20036;-85
2023/03/18 06:43:25;;;;;;;41.03;19.17;;;9.70;99.90;;;;;;5071399;28;20400;-83
2023/03/18 06:45:51;;;;;;;40.83;18.75;;;9.70;99.90;;;;;;5054197;28;20028;-82
2023/03/18 06:48:18;;;;;;;36.05;18.60;;;9.70;99.90;;;;;;5037329;28;20082;-82
2023/03/18 06:50:44;;;;;;;36.95;18.52;;;9.70;99.90;;;;;;5054368;28;20043;-81
2023/03/18 06:53:10;;;;;;;37.47;18.85;;;9.70;99.90;;;;;;5070970;28;20037;-83
2023/03/18 06:55:36;;;;;;;38.83;18.95;;;9.80;99.90;;;;;;5055964;28;20098;-83
2023/03/18 06:58:04;;;;;;;38.58;19.08;;;9.80;99.90;;;;;;5056611;28;20048;-83
2023/03/18 07:00:30;;;;;;;33.58;16.95;;;9.90;99.90;;;;;;5020353;28;20045;-82
2023/03/18 07:02:56;;;;;;;;;;;9.90;99.90;;;;;;5069228;28;20036;-82
2023/03/18 07:05:22;;;;;;;35.42;17.73;;;10.00;99.90;;;;;;5071617;28;19916;-83
2023/03/18 07:07:49;;;;;;;35.17;17.05;;;10.10;99.90;;;;;;5055768;28;20052;-82
2023/03/18 07:10:26;;;;;;;28.13;15.07;;;10.20;99.90;;;;;;5054413;28;20036;-82
2023/03/18 07:12:51;;;;;;;39.40;18.83;;;10.30;99.90;;;;;;5055163;28;20507;-82
2023/03/18 07:15:21;;;;;;;33.83;16.92;;;10.50;99.90;;;;;;5054523;28;20098;-82
2023/03/18 07:17:47;;;;;;;32.00;16.92;;;10.80;99.90;;;;;;5039297;28;20410;-82
2023/03/18 07:20:14;;;;;;;26.17;14.80;;;11.10;99.90;;;;;;5071839;28;20032;-83
2023/03/18 07:22:42;;;;;;;32.03;17.48;;;11.20;99.90;;;;;;5071921;28;20488;-82
2023/03/18 07:25:09;;;;;;;29.35;15.82;;;11.20;99.90;;;;;;5070797;28;20135;-82
2023/03/18 07:27:34;;;;;;;;;;;11.20;99.90;;;;;;5054324;28;20106;-82
2023/03/18 07:30:01;;;;;;;28.67;14.70;;;11.20;99.90;;;;;;5052891;28;20376;-82
2023/03/18 07:32:28;;;;;;;;;;;11.20;99.90;;;;;;5038457;28;20378;-85
2023/03/18 07:34:55;;;;;;;;;;;11.30;99.90;;;;;;5056003;28;19978;-83
2023/03/18 07:37:21;;;;;;;28.95;15.43;;;11.40;99.90;;;;;;5054759;28;19916;-83
2023/03/18 07:39:47;;;;;;;29.67;15.07;;;11.40;99.90;;;;;;5038768;28;20066;-83
2023/03/18 07:42:13;;;;;;;;;;;11.50;99.90;;;;;;5038757;28;20279;-83
2023/03/18 07:44:38;;;;;;;28.45;16.27;;;11.50;99.90;;;;;;5038179;28;19923;-83
2023/03/18 07:47:04;;;;;;;30.88;16.10;;;11.40;99.90;;;;;;5054237;28;20028;-83
2023/03/18 07:49:30;;;;;;;30.45;17.27;;;11.40;99.90;;;;;;5038108;28;20089;-83
2023/03/18 07:51:56;;;;;;;31.38;17.58;;;11.40;99.90;;;;;;5071122;28;20039;-83
2023/03/18 07:54:23;;;;;;;30.70;16.23;;;11.40;99.90;;;;;;5054701;28;20040;-83
2023/03/18 07:56:50;;;;;;;;;;;11.50;99.90;;;;;;5055363;28;20457;-83
2023/03/18 07:59:16;;;;;;;30.00;17.17;;;11.50;99.90;;;;;;5068976;28;19930;-83
2023/03/18 08:01:42;;;;;;;35.05;18.13;;;11.50;99.90;;;;;;5055021;28;20469;-84
2023/03/18 08:04:08;;;;;;;33.08;17.67;;;11.50;99.90;;;;;;5034855;28;20072;-83
2023/03/18 08:06:34;;;;;;;28.77;15.32;;;11.50;99.90;;;;;;5070362;28;20043;-83
2023/03/18 08:09:00;;;;;;;30.90;17.30;;;11.60;99.90;;;;;;5039293;28;20550;-83
2023/03/18 08:11:26;;;;;;;32.10;17.13;;;11.60;99.90;;;;;;5058909;28;20301;-83
2023/03/18 08:13:52;;;;;;;29.30;16.17;;;11.60;99.90;;;;;;5075522;28;20044;-83
2023/03/18 08:16:18;;;;;;;31.98;17.45;;;11.60;99.90;;;;;;5057941;28;20028;-85
2023/03/18 08:18:44;;;;;;;26.80;15.23;;;11.50;99.90;;;;;;5075725;28;20537;-84
2023/03/18 08:21:10;;;;;;;27.40;16.52;;;11.60;99.90;;;;;;5075621;28;20325;-85
2023/03/18 08:23:36;;;;;;;;;;;11.70;99.90;;;;;;5076559;28;20055;-85
2023/03/18 08:26:03;;;;;;;30.13;16.23;;;11.70;99.90;;;;;;5076335;28;19920;-84
2023/03/18 08:28:29;;;;;;;30.60;17.33;;;11.60;99.90;;;;;;5075926;28;20508;-84
2023/03/18 08:30:56;;;;;;;32.35;16.65;;;11.60;99.90;;;;;;5060450;28;20036;-83
2023/03/18 08:33:26;;;;;;;30.58;16.60;;;11.50;99.90;;;;;;5077084;28;20444;-82
2023/03/18 08:35:54;;;;;;;30.83;17.20;;;11.50;99.90;;;;;;5081001;28;20045;-82
2023/03/18 08:38:20;;;;;;;31.25;17.73;;;11.50;99.90;;;;;;5060398;28;20378;-84
2023/03/18 08:40:47;;;;;;;30.90;17.20;;;11.50;99.90;;;;;;5074978;28;20059;-84
2023/03/18 08:43:13;;;;;;;31.48;17.08;;;11.50;99.90;;;;;;5058559;28;20558;-84
2023/03/18 08:45:38;;;;;;;27.65;16.98;;;11.50;99.90;;;;;;5075544;28;20044;-84
2023/03/18 08:48:05;;;;;;;30.60;16.33;;;11.50;99.90;;;;;;5058695;28;20051;-84
2023/03/18 08:50:34;;;;;;;27.40;17.45;;;11.50;99.90;;;;;;5058142;28;20408;-84
2023/03/18 08:53:00;;;;;;;30.98;17.50;;;11.50;99.90;;;;;;5056307;28;20043;-85
2023/03/18 08:55:33;;;;;;;29.83;17.88;;;11.50;99.90;;;;;;5074657;28;20492;-86
2023/03/18 08:58:00;;;;;;;33.13;18.05;;;11.50;99.90;;;;;;5075050;28;20556;-83
2023/03/18 09:00:27;;;;;;;28.55;17.42;;;11.50;99.90;;;;;;5058558;28;20037;-83
2023/03/18 09:02:52;;;;;;;;;;;11.50;99.90;;;;;;5042752;28;20047;-85
2023/03/18 09:05:19;;;;;;;29.30;17.58;;;11.50;99.90;;;;;;5059601;28;19916;-86
2023/03/18 09:07:45;;;;;;;;;;;11.50;99.90;;;;;;5058341;28;20043;-84
2023/03/18 09:10:13;;;;;;;31.33;17.48;;;11.50;99.90;;;;;;5059846;28;19920;-85
2023/03/18 09:12:43;;;;;;;29.05;17.20;;;11.50;99.90;;;;;;5041929;28;20041;-84
2023/03/18 09:15:11;;;;;;;28.80;16.90;;;11.50;99.90;;;;;;5058679;28;20021;-84
2023/03/18 09:17:39;;;;;;;34.13;18.02;;;11.60;99.90;;;;;;5059344;28;20036;-85
2023/03/18 09:20:07;;;;;;;30.08;17.00;;;11.70;99.90;;;;;;5058177;28;20040;-84
2023/03/18 09:22:34;;;;;;;28.65;16.10;;;11.80;99.90;;;;;;5059919;28;20040;-85
2023/03/18 09:25:00;;;;;;;28.58;16.33;;;11.90;99.90;;;;;;5059208;28;20503;-84
2023/03/18 09:27:26;;;;;;;31.58;17.20;;;12.10;99.90;;;;;;5042859;28;20109;-86
2023/03/18 09:29:51;;;;;;;31.02;16.88;;;12.30;99.90;;;;;;5041879;28;20036;-86
2023/03/18 09:32:17;;;;;;;29.90;17.63;;;12.50;99.90;;;;;;5075495;28;20107;-85
2023/03/18 09:34:45;;;;;;;25.02;16.10;;;12.60;99.90;;;;;;5039208;28;20049;-80
2023/03/18 09:37:13;;;;;;;29.90;17.60;;;12.80;99.90;;;;;;5055219;28;20072;-79
2023/03/18 09:39:40;;;;;;;33.10;17.77;;;12.90;99.90;;;;;;5071503;28;20135;-79
2023/03/18 09:42:38;;;;;;;28.05;17.73;;;13.00;99.90;;;;;;5071485;28;20082;-81
2023/03/18 09:45:16;;;;;;;25.80;17.23;;;13.20;99.90;;;;;;5047452;28;20052;-81
2023/03/18 09:48:12;;;;;;;29.00;16.02;;;13.40;99.90;;;;;;5089003;28;20051;-84
2023/03/18 09:50:41;;;;;;;30.77;17.98;;;13.60;99.90;;;;;;5055506;28;20044;-86
2023/03/18 09:53:19;;;;;;;26.52;16.52;;;13.90;99.90;;;;;;5052564;28;20078;-79
2023/03/18 09:56:00;;;;;;;26.50;15.82;;;14.20;99.90;;;;;;5073275;28;20036;-78
2023/03/18 09:58:41;;;;;;;26.75;17.48;;;14.60;99.90;;;;;;5054456;28;20037;-80
2023/03/18 10:01:09;;;;;;;25.90;16.80;;;15.20;99.90;;;;;;5053653;28;20040;-80
2023/03/18 10:03:52;;;;;;;23.40;15.75;;;15.50;99.90;;;;;;5054617;28;20040;-81
2023/03/18 10:06:23;;;;;;;25.38;15.90;;;15.80;99.90;;;;;;5071044;28;20036;-82
2023/03/18 10:09:07;;;;;;;24.05;15.88;;;16.20;99.90;;;;;;5068620;28;20028;-80
2023/03/18 10:11:46;;;;;;;25.02;17.33;;;17.10;99.90;;;;;;5071985;28;20072;-85
2023/03/18 10:14:36;;;;;;;22.13;15.48;;;18.00;99.90;;;;;;5057666;28;20088;-89
2023/03/18 10:17:13;;;;;;;24.23;15.52;;;18.80;99.90;;;;;;5086836;28;20037;-82
2023/03/18 10:19:49;;;;;;;24.65;16.48;;;19.20;99.90;;;;;;5055412;28;20045;-90
2023/03/18 10:22:46;;;;;;;17.33;13.47;;;19.30;99.90;;;;;;5057428;28;20043;-87
2023/03/18 10:25:33;;;;;;;20.85;14.60;;;18.70;99.90;;;;;;5071812;28;20048;-84
2023/03/18 10:28:07;;;;;;;22.52;16.02;;;18.40;99.90;;;;;;5055244;28;20112;-87
2023/03/18 10:30:54;;;;;;;19.25;14.45;;;18.00;99.90;;;;;;5070100;28;20139;-87
2023/03/18 10:33:56;;;;;;;23.23;14.70;;;17.50;99.90;;;;;;5071848;28;20032;-88
2023/03/18 10:36:56;;;;;;;19.58;13.15;;;18.00;99.90;;;;;;5062371;28;20051;-87
2023/03/18 10:39:24;;;;;;;20.63;14.15;;;18.90;99.90;;;;;;5071692;28;20118;-88
2023/03/18 10:41:52;;;;;;;21.55;14.85;;;19.70;99.90;;;;;;5056107;28;20083;-88
2023/03/18 10:44:25;;;;;;;19.83;14.05;;;20.20;99.90;;;;;;5056311;28;20045;-88
2023/03/18 10:47:08;;;;;;;20.60;14.68;;;20.50;99.90;;;;;;5056844;28;20040;-89
2023/03/18 10:50:10;;;;;;;18.38;14.90;;;20.80;99.90;;;;;;5089237;28;20047;-88
2023/03/18 10:52:58;;;;;;;18.65;13.98;;;20.70;99.90;;;;;;5064802;28;20048;-79
2023/03/18 10:55:30;;;;;;;18.10;13.20;;;20.80;99.90;;;;;;5054317;28;20120;-79
2023/03/18 10:57:56;;;;;;;15.77;12.80;;;21.10;99.90;;;;;;5054502;28;20476;-81
2023/03/18 11:00:32;;;;;;;17.30;13.00;;;21.40;99.90;;;;;;5070819;28;20045;-83
2023/03/18 11:02:58;;;;;;;16.05;11.15;;;21.70;99.90;;;;;;5052164;28;20078;-83
2023/03/18 11:05:32;;;;;;;16.60;11.85;;;21.90;99.90;;;;;;5037346;28;20055;-82
2023/03/18 11:08:02;;;;;;;14.10;10.23;;;21.30;99.90;;;;;;5055047;28;20391;-84
2023/03/18 11:10:36;;;;;;;13.82;10.60;;;21.50;99.90;;;;;;5052041;28;20039;-83
2023/03/18 11:13:03;;;;;;;14.00;9.63;;;21.70;99.90;;;;;;5053508;28;20186;-82
2023/03/18 11:15:36;;;;;;;14.43;11.13;;;22.20;99.90;;;;;;5036688;28;20032;-82
2023/03/18 11:18:02;;;;;;;16.90;11.40;;;22.60;99.90;;;;;;5070339;28;20036;-82
2023/03/18 11:20:46;;;;;;;16.50;12.00;;;22.80;99.90;;;;;;5036638;28;20036;-82
2023/03/18 11:23:47;;;;;;;15.23;12.00;;;23.10;99.90;;;;;;5054427;28;20087;-83
2023/03/18 11:26:27;;;;;;;14.05;11.27;;;22.50;99.90;;;;;;5069980;28;20120;-82
2023/03/18 11:29:04;;;;;;;13.02;10.27;;;22.00;99.90;;;;;;5087593;28;20515;-84
2023/03/18 11:31:30;;;;;;;12.70;9.98;;;21.30;99.90;;;;;;5053043;28;20040;-82
2023/03/18 11:33:57;;;;;;;11.85;8.70;;;20.50;99.90;;;;;;5070072;28;20037;-81
2023/03/18 11:36:27;;;;;;;17.10;10.48;;;20.20;99.90;;;;;;5070759;28;20036;-83
2023/03/18 11:39:05;;;;;;;15.07;10.52;;;19.40;99.90;;;;;;5051208;28;20039;-82
2023/03/18 11:41:30;;;;;;;16.60;10.95;;;19.20;99.90;;;;;;5052877;28;20032;-81
2023/03/18 11:44:00;;;;;;;16.80;10.27;;;19.10;99.90;;;;;;5068907;28;20579;-80
2023/03/18 11:46:31;;;;;;;16.65;11.45;;;18.50;99.90;;;;;;5053139;28;20499;-79
2023/03/18 11:48:58;;;;;;;16.00;10.65;;;18.20;99.90;;;;;;5069498;28;20032;-80
2023/03/18 11:51:38;;;;;;;;;;;18.00;99.90;;;;;;5053469;28;20036;-80
2023/03/18 11:54:13;;;;;;;18.27;11.77;;;17.90;99.90;;;;;;5070053;28;19916;-84
2023/03/18 11:56:57;;;;;;;15.13;10.20;;;17.90;99.90;;;;;;5071750;28;20572;-84
2023/03/18 11:59:36;;;;;;;16.45;11.07;;;18.00;99.90;;;;;;5055107;28;20083;-83
2023/03/18 12:02:11;;;;;;;16.90;10.68;;;17.90;99.90;;;;;;5066576;28;20748;-78
2023/03/18 12:04:36;;;;;;;15.90;10.15;;;17.90;99.90;;;;;;5067777;28;20037;-79
2023/03/18 12:07:18;;;;;;;15.23;9.95;;;18.60;99.90;;;;;;5068947;28;20032;-78
2023/03/18 12:10:11;;;;;;;15.57;10.07;;;19.00;99.90;;;;;;5068583;28;20055;-80
2023/03/18 12:12:54;;;;;;;15.85;9.95;;;19.70;99.90;;;;;;5067077;28;20037;-81
2023/03/18 12:15:47;;;;;;;14.55;8.63;;;19.70;99.90;;;;;;5067805;28;20044;-81
2023/03/18 12:18:59;;;;;;;11.88;7.53;;;19.50;99.90;;;;;;5052273;28;20036;-80
2023/03/18 12:22:10;;;;;;;13.45;8.18;;;19.80;99.90;;;;;;5068462;28;20403;-80
2023/03/18 12:25:11;;;;;;;14.27;8.75;;;20.60;99.90;;;;;;5059036;28;20071;-81
2023/03/18 12:27:57;;;;;;;14.38;9.68;;;21.00;99.90;;;;;;5044411;28;20080;-81
2023/03/18 12:30:44;;;;;;;18.52;9.52;;;21.10;99.90;;;;;;5066835;28;20067;-81
2023/03/18 12:33:31;;;;;;;13.80;10.10;;;21.60;99.90;;;;;;5052815;28;20484;-81
2023/03/18 12:36:24;;;;;;;15.93;11.10;;;21.90;99.90;;;;;;5051532;28;20048;-81
2023/03/18 12:39:26;;;;;;;15.57;10.35;;;22.20;99.90;;;;;;5052219;28;20037;-81
2023/03/18 12:42:30;;;;;;;13.75;10.43;;;22.60;99.90;;;;;;5027792;28;20048;-81
2023/03/18 12:44:59;;;;;;;15.68;10.90;;;22.80;99.90;;;;;;5040521;28;20040;-81
2023/03/18 12:47:29;;;;;;;15.77;10.80;;;22.80;99.90;;;;;;5069202;28;20096;-81
2023/03/18 12:50:03;;;;;;;14.65;10.48;;;22.70;99.90;;;;;;5049992;28;20044;-82
2023/03/18 12:52:43;;;;;;;11.95;9.25;;;22.30;99.90;;;;;;5052484;28;20201;-81